sensor_id;sensor_type;location;lat;lon;timestamp;pressure;altitude;pressure_sealevel;temperature;humidity
43824;BME280;29470;53.550;9.926;2023-03-15T00:03:23;100295.09;;;4.84;72.73
43824;BME280;29470;53.550;9.926;2023-03-15T00:08:26;100295.47;;;5.62;70.29
43824;BME280;29470;53.550;9.926;2023-03-15T00:13:29;100303.56;;;4.83;73.95
43824;BME280;29470;53.550;9.926;2023-03-15T00:18:34;100317.69;;;5.09;73.46
43824;BME280;29470;53.550;9.926;2023-03-15T00:23:36;100332.72;;;4.65;73.40
43824;BME280;29470;53.550;9.926;2023-03-15T00:28:44;100334.28;;;5.77;72.46
43824;BME280;29470;53.550;9.926;2023-03-15T00:33:52;100337.41;;;5.31;73.17
43824;BME280;29470;53.550;9.926;2023-03-15T00:38:56;100333.47;;;6.09;71.72
43824;BME280;29470;53.550;9.926;2023-03-15T00:43:59;100336.56;;;5.94;70.50
43824;BME280;29470;53.550;9.926;2023-03-15T00:49:03;100344.44;;;5.75;71.72
43824;BME280;29470;53.550;9.926;2023-03-15T00:54:09;100357.38;;;5.87;70.76
43824;BME280;29470;53.550;9.926;2023-03-15T00:59:14;100360.44;;;6.14;70.95
43824;BME280;29470;53.550;9.926;2023-03-15T01:04:18;100360.44;;;5.93;70.56
43824;BME280;29470;53.550;9.926;2023-03-15T01:09:21;100365.09;;;5.45;72.94
43824;BME280;29470;53.550;9.926;2023-03-15T01:14:24;100358.44;;;5.48;72.40
43824;BME280;29470;53.550;9.926;2023-03-15T01:19:28;100364.84;;;5.32;72.15
43824;BME280;29470;53.550;9.926;2023-03-15T01:24:31;100367.19;;;5.29;75.04
43824;BME280;29470;53.550;9.926;2023-03-15T01:29:34;100380.50;;;5.45;73.94
43824;BME280;29470;53.550;9.926;2023-03-15T01:34:39;100385.09;;;5.81;73.07
43824;BME280;29470;53.550;9.926;2023-03-15T01:39:44;100385.53;;;5.54;75.25
43824;BME280;29470;53.550;9.926;2023-03-15T01:44:49;100393.06;;;5.63;75.68
43824;BME280;29470;53.550;9.926;2023-03-15T01:49:58;100395.78;;;5.75;73.71
43824;BME280;29470;53.550;9.926;2023-03-15T01:55:06;100408.19;;;5.08;78.86
43824;BME280;29470;53.550;9.926;2023-03-15T02:00:16;100407.44;;;5.40;79.02
43824;BME280;29470;53.550;9.926;2023-03-15T02:05:33;100402.44;;;5.73;76.44
43824;BME280;29470;53.550;9.926;2023-03-15T02:10:42;100416.66;;;5.18;77.75
43824;BME280;29470;53.550;9.926;2023-03-15T02:15:46;100425.91;;;5.26;79.35
43824;BME280;29470;53.550;9.926;2023-03-15T02:21:06;100424.09;;;5.45;77.72
43824;BME280;29470;53.550;9.926;2023-03-15T02:26:16;100436.44;;;5.70;76.68
43824;BME280;29470;53.550;9.926;2023-03-15T02:31:23;100432.69;;;5.25;76.92
43824;BME280;29470;53.550;9.926;2023-03-15T02:36:28;100440.47;;;5.06;78.90
43824;BME280;29470;53.550;9.926;2023-03-15T02:41:36;100448.63;;;5.42;77.99
43824;BME280;29470;53.550;9.926;2023-03-15T02:46:43;100458.38;;;5.98;74.72
43824;BME280;29470;53.550;9.926;2023-03-15T02:51:47;100463.63;;;5.79;74.46
43824;BME280;29470;53.550;9.926;2023-03-15T02:56:50;100476.41;;;5.37;75.08
43824;BME280;29470;53.550;9.926;2023-03-15T03:01:55;100487.94;;;6.03;72.89
43824;BME280;29470;53.550;9.926;2023-03-15T03:06:57;100484.63;;;6.57;71.45
43824;BME280;29470;53.550;9.926;2023-03-15T03:12:10;100493.94;;;6.34;70.42
43824;BME280;29470;53.550;9.926;2023-03-15T03:17:15;100497.78;;;6.40;70.49
43824;BME280;29470;53.550;9.926;2023-03-15T03:22:18;100516.66;;;5.88;72.14
43824;BME280;29470;53.550;9.926;2023-03-15T03:27:25;100515.59;;;6.48;70.68
43824;BME280;29470;53.550;9.926;2023-03-15T03:32:29;100525.53;;;6.02;71.82
43824;BME280;29470;53.550;9.926;2023-03-15T03:37:32;100538.63;;;6.16;73.06
43824;BME280;29470;53.550;9.926;2023-03-15T03:42:44;100549.78;;;6.47;71.08
43824;BME280;29470;53.550;9.926;2023-03-15T03:47:50;100563.03;;;6.21;71.61
43824;BME280;29470;53.550;9.926;2023-03-15T03:52:53;100573.72;;;5.75;74.61
43824;BME280;29470;53.550;9.926;2023-03-15T03:58:01;100593.53;;;5.97;74.65
43824;BME280;29470;53.550;9.926;2023-03-15T04:03:23;100602.63;;;5.73;75.13
43824;BME280;29470;53.550;9.926;2023-03-15T04:08:36;100591.91;;;6.18;74.23
43824;BME280;29470;53.550;9.926;2023-03-15T04:13:40;100590.53;;;6.32;74.37
43824;BME280;29470;53.550;9.926;2023-03-15T04:18:45;100591.66;;;6.36;73.41
43824;BME280;29470;53.550;9.926;2023-03-15T04:23:48;100618.22;;;6.06;73.87
43824;BME280;29470;53.550;9.926;2023-03-15T04:29:09;100624.28;;;6.06;74.92
43824;BME280;29470;53.550;9.926;2023-03-15T04:34:33;100626.97;;;6.80;72.74
43824;BME280;29470;53.550;9.926;2023-03-15T04:39:50;100642.38;;;6.08;74.10
43824;BME280;29470;53.550;9.926;2023-03-15T04:45:16;100651.03;;;5.89;76.88
43824;BME280;29470;53.550;9.926;2023-03-15T04:50:39;100647.16;;;5.84;77.43
43824;BME280;29470;53.550;9.926;2023-03-15T04:56:08;100653.56;;;5.79;76.52
43824;BME280;29470;53.550;9.926;2023-03-15T05:01:12;100644.97;;;6.28;75.25
43824;BME280;29470;53.550;9.926;2023-03-15T05:06:30;100656.13;;;6.08;75.95
43824;BME280;29470;53.550;9.926;2023-03-15T05:11:46;100661.78;;;6.35;74.31
43824;BME280;29470;53.550;9.926;2023-03-15T05:17:08;100670.50;;;6.06;76.20
43824;BME280;29470;53.550;9.926;2023-03-15T05:22:43;100683.63;;;6.30;75.05
43824;BME280;29470;53.550;9.926;2023-03-15T05:28:04;100692.53;;;6.54;73.07
43824;BME280;29470;53.550;9.926;2023-03-15T05:33:15;100716.75;;;6.16;74.42
43824;BME280;29470;53.550;9.926;2023-03-15T05:38:58;100720.16;;;6.67;72.94
43824;BME280;29470;53.550;9.926;2023-03-15T05:44:31;100723.31;;;6.33;73.57
43824;BME280;29470;53.550;9.926;2023-03-15T05:49:55;100736.25;;;6.14;74.06
43824;BME280;29470;53.550;9.926;2023-03-15T05:55:18;100731.88;;;5.84;74.71
43824;BME280;29470;53.550;9.926;2023-03-15T06:00:30;100741.06;;;6.41;74.46
43824;BME280;29470;53.550;9.926;2023-03-15T06:05:40;100756.38;;;6.60;72.57
43824;BME280;29470;53.550;9.926;2023-03-15T06:10:49;100770.69;;;6.98;71.59
43824;BME280;29470;53.550;9.926;2023-03-15T06:15:52;100779.03;;;6.85;71.16
43824;BME280;29470;53.550;9.926;2023-03-15T06:20:55;100791.63;;;6.21;72.79
43824;BME280;29470;53.550;9.926;2023-03-15T06:26:00;100797.91;;;6.25;73.26
43824;BME280;29470;53.550;9.926;2023-03-15T06:31:06;100794.97;;;6.81;71.56
43824;BME280;29470;53.550;9.926;2023-03-15T06:36:16;100802.44;;;6.88;70.42
43824;BME280;29470;53.550;9.926;2023-03-15T06:41:21;100807.97;;;7.13;69.96
43824;BME280;29470;53.550;9.926;2023-03-15T06:46:29;100808.25;;;8.23;66.60
43824;BME280;29470;53.550;9.926;2023-03-15T06:51:32;100812.09;;;8.83;64.20
43824;BME280;29470;53.550;9.926;2023-03-15T06:56:36;100822.47;;;8.50;63.85
43824;BME280;29470;53.550;9.926;2023-03-15T07:01:39;100827.59;;;8.83;61.71
43824;BME280;29470;53.550;9.926;2023-03-15T07:06:42;100848.22;;;9.75;58.43
43824;BME280;29470;53.550;9.926;2023-03-15T07:11:46;100839.19;;;11.16;55.50
43824;BME280;29470;53.550;9.926;2023-03-15T07:16:49;100855.44;;;10.27;55.71
43824;BME280;29470;53.550;9.926;2023-03-15T07:21:52;100909.19;;;8.60;59.76
43824;BME280;29470;53.550;9.926;2023-03-15T07:26:56;100912.66;;;7.04;66.63
43824;BME280;29470;53.550;9.926;2023-03-15T07:31:59;100938.16;;;6.03;72.06
43824;BME280;29470;53.550;9.926;2023-03-15T07:37:02;100904.75;;;6.82;71.46
43824;BME280;29470;53.550;9.926;2023-03-15T07:42:06;100902.22;;;6.92;69.30
43824;BME280;29470;53.550;9.926;2023-03-15T07:47:15;100901.88;;;7.39;69.18
43824;BME280;29470;53.550;9.926;2023-03-15T07:52:18;100911.44;;;8.24;68.07
43824;BME280;29470;53.550;9.926;2023-03-15T07:57:23;100912.59;;;7.44;69.59
43824;BME280;29470;53.550;9.926;2023-03-15T08:02:29;100918.25;;;7.91;67.89
43824;BME280;29470;53.550;9.926;2023-03-15T08:07:31;100925.91;;;8.02;67.91
43824;BME280;29470;53.550;9.926;2023-03-15T08:12:35;100929.81;;;8.60;64.96
43824;BME280;29470;53.550;9.926;2023-03-15T08:17:41;100933.94;;;8.58;63.95
43824;BME280;29470;53.550;9.926;2023-03-15T08:22:44;100945.63;;;8.01;67.21
43824;BME280;29470;53.550;9.926;2023-03-15T08:27:48;100950.16;;;8.67;64.52
43824;BME280;29470;53.550;9.926;2023-03-15T08:32:51;100960.78;;;8.82;64.45
43824;BME280;29470;53.550;9.926;2023-03-15T08:37:54;100969.50;;;8.95;64.95
43824;BME280;29470;53.550;9.926;2023-03-15T08:42:58;100965.78;;;9.36;59.99
43824;BME280;29470;53.550;9.926;2023-03-15T08:48:01;100985.78;;;8.51;64.72
43824;BME280;29470;53.550;9.926;2023-03-15T08:53:04;100981.81;;;9.09;63.88
43824;BME280;29470;53.550;9.926;2023-03-15T08:58:08;100999.03;;;8.55;61.97
43824;BME280;29470;53.550;9.926;2023-03-15T09:03:13;100984.91;;;10.78;55.11
43824;BME280;29470;53.550;9.926;2023-03-15T09:08:17;101005.16;;;10.71;54.22
43824;BME280;29470;53.550;9.926;2023-03-15T09:13:23;101032.44;;;9.86;55.84
43824;BME280;29470;53.550;9.926;2023-03-15T09:18:27;101056.28;;;8.51;61.62
43824;BME280;29470;53.550;9.926;2023-03-15T09:23:30;101009.00;;;8.09;62.28
43824;BME280;29470;53.550;9.926;2023-03-15T09:28:34;101040.28;;;7.62;67.07
43824;BME280;29470;53.550;9.926;2023-03-15T09:33:37;101043.41;;;7.79;65.74
43824;BME280;29470;53.550;9.926;2023-03-15T09:38:41;101036.41;;;8.61;65.25
43824;BME280;29470;53.550;9.926;2023-03-15T09:44:07;101021.41;;;9.10;62.80
43824;BME280;29470;53.550;9.926;2023-03-15T09:49:16;101027.81;;;10.16;59.45
43824;BME280;29470;53.550;9.926;2023-03-15T09:54:23;101040.53;;;10.37;59.72
43824;BME280;29470;53.550;9.926;2023-03-15T09:59:33;101039.69;;;10.84;55.51
43824;BME280;29470;53.550;9.926;2023-03-15T10:04:36;101047.75;;;10.29;56.83
43824;BME280;29470;53.550;9.926;2023-03-15T10:09:41;101064.22;;;8.75;58.19
43824;BME280;29470;53.550;9.926;2023-03-15T10:14:58;101061.16;;;8.69;60.87
43824;BME280;29470;53.550;9.926;2023-03-15T10:20:07;101054.09;;;8.15;64.38
43824;BME280;29470;53.550;9.926;2023-03-15T10:25:15;101058.09;;;7.90;64.47
43824;BME280;29470;53.550;9.926;2023-03-15T10:30:23;101056.03;;;8.91;60.83
43824;BME280;29470;53.550;9.926;2023-03-15T10:35:26;101047.00;;;9.51;58.90
43824;BME280;29470;53.550;9.926;2023-03-15T10:40:41;101052.41;;;8.99;57.08
43824;BME280;29470;53.550;9.926;2023-03-15T10:45:57;101057.53;;;9.65;56.13
43824;BME280;29470;53.550;9.926;2023-03-15T10:51:03;101060.03;;;8.98;58.30
43824;BME280;29470;53.550;9.926;2023-03-15T10:56:22;101062.44;;;9.62;56.61
43824;BME280;29470;53.550;9.926;2023-03-15T11:01:29;101066.22;;;9.33;55.58
43824;BME280;29470;53.550;9.926;2023-03-15T11:06:40;101066.22;;;9.77;56.03
43824;BME280;29470;53.550;9.926;2023-03-15T11:11:52;101077.56;;;9.35;55.70
43824;BME280;29470;53.550;9.926;2023-03-15T11:16:58;101089.16;;;9.40;54.00
43824;BME280;29470;53.550;9.926;2023-03-15T11:22:01;101096.16;;;10.20;50.89
43824;BME280;29470;53.550;9.926;2023-03-15T11:27:10;101096.63;;;10.26;51.70
43824;BME280;29470;53.550;9.926;2023-03-15T11:32:18;101108.22;;;10.89;50.25
43824;BME280;29470;53.550;9.926;2023-03-15T11:37:25;101099.38;;;9.83;49.02
43824;BME280;29470;53.550;9.926;2023-03-15T11:42:32;101093.22;;;10.61;49.36
43824;BME280;29470;53.550;9.926;2023-03-15T11:47:42;101124.78;;;10.11;48.96
43824;BME280;29470;53.550;9.926;2023-03-15T11:52:49;101145.59;;;8.82;54.28
43824;BME280;29470;53.550;9.926;2023-03-15T11:57:54;101161.59;;;8.67;57.28
43824;BME280;29470;53.550;9.926;2023-03-15T12:03:30;101146.59;;;8.11;60.40
43824;BME280;29470;53.550;9.926;2023-03-15T12:08:43;101152.91;;;8.25;61.07
43824;BME280;29470;53.550;9.926;2023-03-15T12:14:02;101152.13;;;8.26;62.92
43824;BME280;29470;53.550;9.926;2023-03-15T12:19:12;101136.94;;;8.81;60.92
43824;BME280;29470;53.550;9.926;2023-03-15T12:24:21;101163.16;;;9.29;62.25
43824;BME280;29470;53.550;9.926;2023-03-15T12:29:27;101169.91;;;9.17;60.23
43824;BME280;29470;53.550;9.926;2023-03-15T12:34:43;101154.16;;;8.10;52.46
43824;BME280;29470;53.550;9.926;2023-03-15T12:39:49;101134.34;;;8.40;48.89
43824;BME280;29470;53.550;9.926;2023-03-15T12:44:52;101151.63;;;9.03;49.97
43824;BME280;29470;53.550;9.926;2023-03-15T12:50:35;101155.38;;;8.86;53.43
43824;BME280;29470;53.550;9.926;2023-03-15T12:55:39;101160.50;;;9.07;56.38
43824;BME280;29470;53.550;9.926;2023-03-15T13:00:42;101157.25;;;9.52;55.43
43824;BME280;29470;53.550;9.926;2023-03-15T13:05:53;101155.84;;;10.23;54.83
43824;BME280;29470;53.550;9.926;2023-03-15T13:11:16;101153.50;;;10.26;53.80
43824;BME280;29470;53.550;9.926;2023-03-15T13:16:29;101150.44;;;9.75;51.70
43824;BME280;29470;53.550;9.926;2023-03-15T13:21:40;101152.13;;;9.42;53.33
43824;BME280;29470;53.550;9.926;2023-03-15T13:26:56;101149.03;;;10.35;50.71
43824;BME280;29470;53.550;9.926;2023-03-15T13:32:01;101151.22;;;10.19;47.40
43824;BME280;29470;53.550;9.926;2023-03-15T13:37:14;101146.84;;;10.17;47.25
43824;BME280;29470;53.550;9.926;2023-03-15T13:42:20;101157.22;;;10.64;45.17
43824;BME280;29470;53.550;9.926;2023-03-15T13:47:25;101151.13;;;10.39;46.03
43824;BME280;29470;53.550;9.926;2023-03-15T13:52:29;101167.22;;;10.02;46.30
43824;BME280;29470;53.550;9.926;2023-03-15T13:57:32;101159.94;;;9.64;46.67
43824;BME280;29470;53.550;9.926;2023-03-15T14:02:37;101174.03;;;9.25;46.92
43824;BME280;29470;53.550;9.926;2023-03-15T14:07:48;101182.34;;;9.43;47.18
43824;BME280;29470;53.550;9.926;2023-03-15T14:12:52;101195.72;;;9.60;47.71
43824;BME280;29470;53.550;9.926;2023-03-15T14:18:00;101220.59;;;8.44;52.35
43824;BME280;29470;53.550;9.926;2023-03-15T14:23:08;101212.28;;;8.17;53.19
43824;BME280;29470;53.550;9.926;2023-03-15T14:28:14;101216.53;;;8.56;52.39
43824;BME280;29470;53.550;9.926;2023-03-15T14:33:23;101220.34;;;8.40;52.82
43824;BME280;29470;53.550;9.926;2023-03-15T14:38:35;101219.81;;;8.45;52.44
43824;BME280;29470;53.550;9.926;2023-03-15T14:43:38;101227.47;;;8.84;52.26
43824;BME280;29470;53.550;9.926;2023-03-15T14:48:41;101218.25;;;10.05;50.15
43824;BME280;29470;53.550;9.926;2023-03-15T14:53:46;101219.44;;;9.66;51.90
43824;BME280;29470;53.550;9.926;2023-03-15T14:58:50;101221.09;;;9.22;52.11
43824;BME280;29470;53.550;9.926;2023-03-15T15:03:56;101224.38;;;9.09;52.64
43824;BME280;29470;53.550;9.926;2023-03-15T15:09:02;101224.22;;;9.08;53.03
43824;BME280;29470;53.550;9.926;2023-03-15T15:14:09;101222.31;;;8.64;53.51
43824;BME280;29470;53.550;9.926;2023-03-15T15:19:14;101236.59;;;9.12;53.39
43824;BME280;29470;53.550;9.926;2023-03-15T15:24:19;101231.63;;;9.56;51.76
43824;BME280;29470;53.550;9.926;2023-03-15T15:29:23;101252.06;;;9.76;49.86
43824;BME280;29470;53.550;9.926;2023-03-15T15:34:26;101243.69;;;9.35;47.16
43824;BME280;29470;53.550;9.926;2023-03-15T15:39:31;101248.00;;;10.00;44.12
43824;BME280;29470;53.550;9.926;2023-03-15T15:44:33;101252.81;;;9.85;44.54
43824;BME280;29470;53.550;9.926;2023-03-15T15:49:36;101259.72;;;9.10;45.09
43824;BME280;29470;53.550;9.926;2023-03-15T15:54:45;101256.75;;;8.85;45.58
43824;BME280;29470;53.550;9.926;2023-03-15T15:59:48;101258.91;;;9.85;44.82
43824;BME280;29470;53.550;9.926;2023-03-15T16:04:51;101278.91;;;9.35;45.90
43824;BME280;29470;53.550;9.926;2023-03-15T16:09:57;101278.16;;;9.15;46.01
43824;BME280;29470;53.550;9.926;2023-03-15T16:15:01;101284.09;;;9.24;46.44
43824;BME280;29470;53.550;9.926;2023-03-15T16:20:05;101285.50;;;9.52;45.55
43824;BME280;29470;53.550;9.926;2023-03-15T16:25:15;101297.75;;;8.92;45.93
43824;BME280;29470;53.550;9.926;2023-03-15T16:30:22;101300.09;;;9.10;45.48
43824;BME280;29470;53.550;9.926;2023-03-15T16:35:29;101319.56;;;9.58;45.50
43824;BME280;29470;53.550;9.926;2023-03-15T16:40:38;101312.63;;;9.26;46.75
43824;BME280;29470;53.550;9.926;2023-03-15T16:45:42;101324.59;;;8.94;48.18
43824;BME280;29470;53.550;9.926;2023-03-15T16:50:45;101335.69;;;8.83;48.66
43824;BME280;29470;53.550;9.926;2023-03-15T16:55:50;101341.00;;;8.95;48.77
43824;BME280;29470;53.550;9.926;2023-03-15T17:00:52;101342.00;;;8.87;48.32
43824;BME280;29470;53.550;9.926;2023-03-15T17:05:56;101337.59;;;8.65;48.85
43824;BME280;29470;53.550;9.926;2023-03-15T17:11:00;101352.44;;;8.88;48.88
43824;BME280;29470;53.550;9.926;2023-03-15T17:16:03;101368.88;;;8.49;47.93
43824;BME280;29470;53.550;9.926;2023-03-15T17:21:09;101373.09;;;8.19;48.38
43824;BME280;29470;53.550;9.926;2023-03-15T17:26:17;101378.63;;;8.43;48.08
43824;BME280;29470;53.550;9.926;2023-03-15T17:31:21;101383.06;;;8.05;48.71
43824;BME280;29470;53.550;9.926;2023-03-15T17:36:29;101387.53;;;7.78;50.12
43824;BME280;29470;53.550;9.926;2023-03-15T17:41:37;101395.13;;;8.45;48.89
43824;BME280;29470;53.550;9.926;2023-03-15T17:46:43;101393.66;;;8.08;49.76
43824;BME280;29470;53.550;9.926;2023-03-15T17:51:45;101400.81;;;8.02;50.78
43824;BME280;29470;53.550;9.926;2023-03-15T17:56:50;101403.34;;;7.92;51.30
43824;BME280;29470;53.550;9.926;2023-03-15T18:01:53;101403.69;;;7.86;51.48
43824;BME280;29470;53.550;9.926;2023-03-15T18:06:55;101408.13;;;7.78;52.13
43824;BME280;29470;53.550;9.926;2023-03-15T18:11:59;101409.47;;;7.84;52.47
43824;BME280;29470;53.550;9.926;2023-03-15T18:17:02;101415.78;;;7.49;53.54
43824;BME280;29470;53.550;9.926;2023-03-15T18:22:05;101422.41;;;7.75;53.42
43824;BME280;29470;53.550;9.926;2023-03-15T18:27:09;101432.00;;;7.39;53.74
43824;BME280;29470;53.550;9.926;2023-03-15T18:32:13;101424.00;;;7.64;53.54
43824;BME280;29470;53.550;9.926;2023-03-15T18:37:16;101434.69;;;7.49;54.01
43824;BME280;29470;53.550;9.926;2023-03-15T18:42:20;101437.63;;;7.63;54.47
43824;BME280;29470;53.550;9.926;2023-03-15T18:47:23;101443.78;;;7.18;55.31
43824;BME280;29470;53.550;9.926;2023-03-15T18:52:26;101443.78;;;7.18;55.51
43824;BME280;29470;53.550;9.926;2023-03-15T18:57:30;101449.47;;;7.33;55.47
43824;BME280;29470;53.550;9.926;2023-03-15T19:02:33;101450.75;;;7.47;55.33
43824;BME280;29470;53.550;9.926;2023-03-15T19:07:36;101450.88;;;7.20;55.73
43824;BME280;29470;53.550;9.926;2023-03-15T19:12:40;101452.03;;;7.33;56.22
43824;BME280;29470;53.550;9.926;2023-03-15T19:17:46;101456.88;;;7.30;56.99
43824;BME280;29470;53.550;9.926;2023-03-15T19:22:50;101450.84;;;7.29;57.85
43824;BME280;29470;53.550;9.926;2023-03-15T19:27:55;101461.38;;;7.69;56.98
43824;BME280;29470;53.550;9.926;2023-03-15T19:32:58;101463.53;;;7.36;58.77
43824;BME280;29470;53.550;9.926;2023-03-15T19:38:01;101466.59;;;7.60;57.37
43824;BME280;29470;53.550;9.926;2023-03-15T19:43:06;101468.34;;;7.70;57.73
43824;BME280;29470;53.550;9.926;2023-03-15T19:48:10;101474.81;;;7.75;57.49
43824;BME280;29470;53.550;9.926;2023-03-15T19:53:16;101475.00;;;7.68;57.01
43824;BME280;29470;53.550;9.926;2023-03-15T19:58:21;101472.72;;;7.71;57.29
43824;BME280;29470;53.550;9.926;2023-03-15T20:03:24;101486.72;;;7.28;58.67
43824;BME280;29470;53.550;9.926;2023-03-15T20:08:27;101494.53;;;7.47;58.52
43824;BME280;29470;53.550;9.926;2023-03-15T20:13:31;101491.47;;;7.51;58.14
43824;BME280;29470;53.550;9.926;2023-03-15T20:18:34;101508.56;;;7.14;59.63
43824;BME280;29470;53.550;9.926;2023-03-15T20:23:37;101503.28;;;7.12;59.77
43824;BME280;29470;53.550;9.926;2023-03-15T20:28:42;101516.94;;;7.02;60.33
43824;BME280;29470;53.550;9.926;2023-03-15T20:33:47;101510.50;;;7.25;59.59
43824;BME280;29470;53.550;9.926;2023-03-15T20:38:51;101526.34;;;7.02;60.92
43824;BME280;29470;53.550;9.926;2023-03-15T20:43:55;101523.13;;;7.04;60.75
43824;BME280;29470;53.550;9.926;2023-03-15T20:48:58;101533.28;;;6.94;61.01
43824;BME280;29470;53.550;9.926;2023-03-15T20:54:01;101530.59;;;6.92;60.26
43824;BME280;29470;53.550;9.926;2023-03-15T20:59:08;101539.06;;;6.83;60.76
43824;BME280;29470;53.550;9.926;2023-03-15T21:04:12;101532.72;;;6.79;60.32
43824;BME280;29470;53.550;9.926;2023-03-15T21:09:16;101540.25;;;7.04;59.83
43824;BME280;29470;53.550;9.926;2023-03-15T21:14:20;101541.56;;;7.18;59.41
43824;BME280;29470;53.550;9.926;2023-03-15T21:19:23;101544.03;;;6.99;60.13
43824;BME280;29470;53.550;9.926;2023-03-15T21:24:28;101544.34;;;7.02;59.64
43824;BME280;29470;53.550;9.926;2023-03-15T21:29:33;101540.75;;;6.65;60.96
43824;BME280;29470;53.550;9.926;2023-03-15T21:34:36;101541.75;;;6.93;60.08
43824;BME280;29470;53.550;9.926;2023-03-15T21:39:39;101542.31;;;7.08;59.11
43824;BME280;29470;53.550;9.926;2023-03-15T21:44:43;101545.78;;;7.17;58.24
43824;BME280;29470;53.550;9.926;2023-03-15T21:49:46;101545.94;;;7.19;58.47
43824;BME280;29470;53.550;9.926;2023-03-15T21:54:49;101547.97;;;7.04;58.49
43824;BME280;29470;53.550;9.926;2023-03-15T21:59:53;101552.69;;;6.90;59.11
43824;BME280;29470;53.550;9.926;2023-03-15T22:04:56;101552.69;;;6.82;59.46
43824;BME280;29470;53.550;9.926;2023-03-15T22:09:59;101554.50;;;6.83;59.22
43824;BME280;29470;53.550;9.926;2023-03-15T22:15:04;101552.50;;;6.89;59.20
43824;BME280;29470;53.550;9.926;2023-03-15T22:20:08;101551.03;;;6.82;58.97
43824;BME280;29470;53.550;9.926;2023-03-15T22:25:16;101547.84;;;6.76;59.17
43824;BME280;29470;53.550;9.926;2023-03-15T22:30:21;101547.41;;;6.62;59.91
43824;BME280;29470;53.550;9.926;2023-03-15T22:35:24;101552.69;;;6.46;60.48
43824;BME280;29470;53.550;9.926;2023-03-15T22:40:27;101544.06;;;6.37;60.57
43824;BME280;29470;53.550;9.926;2023-03-15T22:45:32;101542.09;;;6.43;60.18
43824;BME280;29470;53.550;9.926;2023-03-15T22:50:34;101553.00;;;6.41;60.08
43824;BME280;29470;53.550;9.926;2023-03-15T22:55:37;101555.41;;;6.39;60.53
43824;BME280;29470;53.550;9.926;2023-03-15T23:00:41;101550.88;;;6.63;59.89
43824;BME280;29470;53.550;9.926;2023-03-15T23:05:45;101556.31;;;6.48;59.98
43824;BME280;29470;53.550;9.926;2023-03-15T23:10:48;101555.88;;;6.44;60.63
43824;BME280;29470;53.550;9.926;2023-03-15T23:15:53;101569.28;;;6.24;60.49
43824;BME280;29470;53.550;9.926;2023-03-15T23:21:03;101572.31;;;6.11;61.79
43824;BME280;29470;53.550;9.926;2023-03-15T23:26:05;101575.81;;;6.20;61.47
43824;BME280;29470;53.550;9.926;2023-03-15T23:31:10;101585.00;;;6.09;62.14
43824;BME280;29470;53.550;9.926;2023-03-15T23:36:13;101588.47;;;6.10;61.91
43824;BME280;29470;53.550;9.926;2023-03-15T23:41:15;101585.91;;;6.10;62.01
43824;BME280;29470;53.550;9.926;2023-03-15T23:46:30;101589.84;;;6.06;62.58
43824;BME280;29470;53.550;9.926;2023-03-15T23:51:36;101601.66;;;5.88;62.70
43824;BME280;29470;53.550;9.926;2023-03-15T23:56:39;101604.25;;;5.88;62.75
